sensor_id;sensor_type;location;lat;lon;timestamp;P1;durP1;ratioP1;P2;durP2;ratioP2
9306;SDS011;4691;47.612;7.610;2023-06-24T00:02:10;18.48;;;12.20;;
9306;SDS011;4691;47.612;7.610;2023-06-24T00:04:35;20.00;;;12.90;;
9306;SDS011;4691;47.612;7.610;2023-06-24T00:07:03;24.15;;;12.90;;
9306;SDS011;4691;47.612;7.610;2023-06-24T00:09:29;19.90;;;12.23;;
9306;SDS011;4691;47.612;7.610;2023-06-24T00:11:55;23.05;;;13.05;;
9306;SDS011;4691;47.612;7.610;2023-06-24T00:14:21;24.52;;;12.50;;
9306;SDS011;4691;47.612;7.610;2023-06-24T00:16:49;22.85;;;13.02;;
9306;SDS011;4691;47.612;7.610;2023-06-24T00:19:20;18.77;;;12.63;;
9306;SDS011;4691;47.612;7.610;2023-06-24T00:21:46;22.38;;;13.55;;
9306;SDS011;4691;47.612;7.610;2023-06-24T00:24:17;23.42;;;13.27;;
9306;SDS011;4691;47.612;7.610;2023-06-24T00:26:50;24.77;;;13.50;;
9306;SDS011;4691;47.612;7.610;2023-06-24T00:29:15;22.55;;;14.65;;
9306;SDS011;4691;47.612;7.610;2023-06-24T00:31:41;25.60;;;14.43;;
9306;SDS011;4691;47.612;7.610;2023-06-24T00:34:09;22.17;;;13.40;;
9306;SDS011;4691;47.612;7.610;2023-06-24T00:36:34;22.35;;;12.07;;
9306;SDS011;4691;47.612;7.610;2023-06-24T00:39:03;24.02;;;12.80;;
9306;SDS011;4691;47.612;7.610;2023-06-24T00:41:29;24.17;;;13.05;;
9306;SDS011;4691;47.612;7.610;2023-06-24T00:43:56;17.48;;;11.90;;
9306;SDS011;4691;47.612;7.610;2023-06-24T00:46:25;19.23;;;12.43;;
9306;SDS011;4691;47.612;7.610;2023-06-24T00:48:52;21.85;;;12.55;;
9306;SDS011;4691;47.612;7.610;2023-06-24T00:51:18;26.95;;;12.70;;
9306;SDS011;4691;47.612;7.610;2023-06-24T00:53:52;21.25;;;12.63;;
9306;SDS011;4691;47.612;7.610;2023-06-24T00:56:22;30.83;;;12.75;;
9306;SDS011;4691;47.612;7.610;2023-06-24T00:58:56;18.90;;;12.52;;
9306;SDS011;4691;47.612;7.610;2023-06-24T01:01:23;23.98;;;12.50;;
9306;SDS011;4691;47.612;7.610;2023-06-24T01:03:49;22.08;;;12.82;;
9306;SDS011;4691;47.612;7.610;2023-06-24T01:06:14;22.77;;;13.07;;
9306;SDS011;4691;47.612;7.610;2023-06-24T01:08:42;20.77;;;12.65;;
9306;SDS011;4691;47.612;7.610;2023-06-24T01:11:08;22.50;;;12.70;;
9306;SDS011;4691;47.612;7.610;2023-06-24T01:13:33;23.13;;;12.00;;
9306;SDS011;4691;47.612;7.610;2023-06-24T01:16:00;19.33;;;12.32;;
9306;SDS011;4691;47.612;7.610;2023-06-24T01:18:32;23.70;;;12.65;;
9306;SDS011;4691;47.612;7.610;2023-06-24T01:24:12;22.45;;;12.10;;
9306;SDS011;4691;47.612;7.610;2023-06-24T01:33:02;20.75;;;12.63;;
9306;SDS011;4691;47.612;7.610;2023-06-24T01:35:16;21.65;;;11.40;;
9306;SDS011;4691;47.612;7.610;2023-06-24T01:37:46;18.75;;;10.93;;
9306;SDS011;4691;47.612;7.610;2023-06-24T01:42:58;19.80;;;11.75;;
9306;SDS011;4691;47.612;7.610;2023-06-24T01:45:28;17.45;;;11.55;;
9306;SDS011;4691;47.612;7.610;2023-06-24T01:48:16;23.42;;;12.25;;
9306;SDS011;4691;47.612;7.610;2023-06-24T01:53:44;16.80;;;11.43;;
9306;SDS011;4691;47.612;7.610;2023-06-24T01:56:26;19.85;;;11.48;;
9306;SDS011;4691;47.612;7.610;2023-06-24T01:58:54;19.40;;;11.57;;
9306;SDS011;4691;47.612;7.610;2023-06-24T02:01:25;21.60;;;11.48;;
9306;SDS011;4691;47.612;7.610;2023-06-24T02:03:52;18.52;;;12.20;;
9306;SDS011;4691;47.612;7.610;2023-06-24T02:06:20;19.75;;;11.73;;
9306;SDS011;4691;47.612;7.610;2023-06-24T02:08:49;19.83;;;11.63;;
9306;SDS011;4691;47.612;7.610;2023-06-24T02:11:19;21.15;;;12.00;;
9306;SDS011;4691;47.612;7.610;2023-06-24T02:13:46;17.15;;;11.45;;
9306;SDS011;4691;47.612;7.610;2023-06-24T02:19:47;22.25;;;12.40;;
9306;SDS011;4691;47.612;7.610;2023-06-24T02:22:13;25.95;;;12.93;;
9306;SDS011;4691;47.612;7.610;2023-06-24T02:27:08;19.00;;;12.05;;
9306;SDS011;4691;47.612;7.610;2023-06-24T02:29:38;21.98;;;12.68;;
9306;SDS011;4691;47.612;7.610;2023-06-24T02:32:11;23.40;;;12.48;;
9306;SDS011;4691;47.612;7.610;2023-06-24T02:34:39;31.48;;;13.07;;
9306;SDS011;4691;47.612;7.610;2023-06-24T02:37:10;25.98;;;13.52;;
9306;SDS011;4691;47.612;7.610;2023-06-24T02:39:39;21.92;;;12.95;;
9306;SDS011;4691;47.612;7.610;2023-06-24T02:42:16;21.40;;;12.32;;
9306;SDS011;4691;47.612;7.610;2023-06-24T02:44:42;22.17;;;12.30;;
9306;SDS011;4691;47.612;7.610;2023-06-24T02:47:09;19.70;;;11.50;;
9306;SDS011;4691;47.612;7.610;2023-06-24T02:49:39;18.02;;;11.70;;
9306;SDS011;4691;47.612;7.610;2023-06-24T02:52:05;22.75;;;12.65;;
9306;SDS011;4691;47.612;7.610;2023-06-24T02:54:34;20.08;;;12.75;;
9306;SDS011;4691;47.612;7.610;2023-06-24T02:57:03;21.33;;;11.95;;
9306;SDS011;4691;47.612;7.610;2023-06-24T02:59:31;19.05;;;12.80;;
9306;SDS011;4691;47.612;7.610;2023-06-24T03:01:57;21.88;;;12.10;;
9306;SDS011;4691;47.612;7.610;2023-06-24T03:04:27;21.52;;;11.57;;
9306;SDS011;4691;47.612;7.610;2023-06-24T03:06:53;19.48;;;11.77;;
9306;SDS011;4691;47.612;7.610;2023-06-24T03:09:19;19.35;;;11.35;;
9306;SDS011;4691;47.612;7.610;2023-06-24T03:11:48;19.90;;;11.30;;
9306;SDS011;4691;47.612;7.610;2023-06-24T03:14:13;16.83;;;10.55;;
9306;SDS011;4691;47.612;7.610;2023-06-24T03:16:38;18.55;;;11.02;;
9306;SDS011;4691;47.612;7.610;2023-06-24T03:19:04;18.05;;;10.80;;
9306;SDS011;4691;47.612;7.610;2023-06-24T03:21:33;21.92;;;10.85;;
9306;SDS011;4691;47.612;7.610;2023-06-24T03:24:00;21.65;;;11.50;;
9306;SDS011;4691;47.612;7.610;2023-06-24T03:26:32;17.48;;;11.02;;
9306;SDS011;4691;47.612;7.610;2023-06-24T03:29:07;20.83;;;11.60;;
9306;SDS011;4691;47.612;7.610;2023-06-24T03:31:38;19.75;;;11.73;;
9306;SDS011;4691;47.612;7.610;2023-06-24T03:34:09;18.98;;;11.25;;
9306;SDS011;4691;47.612;7.610;2023-06-24T03:36:38;19.67;;;11.60;;
9306;SDS011;4691;47.612;7.610;2023-06-24T03:39:04;21.70;;;11.15;;
9306;SDS011;4691;47.612;7.610;2023-06-24T03:41:33;22.00;;;11.85;;
9306;SDS011;4691;47.612;7.610;2023-06-24T03:43:59;20.15;;;11.65;;
9306;SDS011;4691;47.612;7.610;2023-06-24T03:46:26;24.23;;;11.88;;
9306;SDS011;4691;47.612;7.610;2023-06-24T03:48:57;22.83;;;12.23;;
9306;SDS011;4691;47.612;7.610;2023-06-24T03:51:30;28.45;;;12.27;;
9306;SDS011;4691;47.612;7.610;2023-06-24T03:53:56;20.80;;;11.75;;
9306;SDS011;4691;47.612;7.610;2023-06-24T03:56:21;23.67;;;13.35;;
9306;SDS011;4691;47.612;7.610;2023-06-24T03:58:50;29.08;;;13.38;;
9306;SDS011;4691;47.612;7.610;2023-06-24T04:01:18;19.55;;;11.85;;
9306;SDS011;4691;47.612;7.610;2023-06-24T04:03:47;19.35;;;12.35;;
9306;SDS011;4691;47.612;7.610;2023-06-24T04:06:12;21.42;;;12.52;;
9306;SDS011;4691;47.612;7.610;2023-06-24T04:08:38;19.50;;;12.30;;
9306;SDS011;4691;47.612;7.610;2023-06-24T04:13:33;22.95;;;12.50;;
9306;SDS011;4691;47.612;7.610;2023-06-24T04:16:01;22.92;;;12.75;;
9306;SDS011;4691;47.612;7.610;2023-06-24T04:18:27;23.77;;;12.85;;
9306;SDS011;4691;47.612;7.610;2023-06-24T04:20:55;23.10;;;11.90;;
9306;SDS011;4691;47.612;7.610;2023-06-24T04:23:24;23.33;;;12.25;;
9306;SDS011;4691;47.612;7.610;2023-06-24T04:25:50;21.15;;;13.10;;
9306;SDS011;4691;47.612;7.610;2023-06-24T04:28:15;24.70;;;12.32;;
9306;SDS011;4691;47.612;7.610;2023-06-24T04:30:41;20.55;;;13.38;;
9306;SDS011;4691;47.612;7.610;2023-06-24T04:33:12;24.90;;;12.48;;
9306;SDS011;4691;47.612;7.610;2023-06-24T04:35:37;20.90;;;12.45;;
9306;SDS011;4691;47.612;7.610;2023-06-24T04:38:03;20.25;;;12.60;;
9306;SDS011;4691;47.612;7.610;2023-06-24T04:40:28;24.27;;;12.70;;
9306;SDS011;4691;47.612;7.610;2023-06-24T04:42:55;23.85;;;12.90;;
9306;SDS011;4691;47.612;7.610;2023-06-24T04:45:20;24.63;;;13.23;;
9306;SDS011;4691;47.612;7.610;2023-06-24T04:47:48;19.60;;;12.25;;
9306;SDS011;4691;47.612;7.610;2023-06-24T04:50:16;23.45;;;12.48;;
9306;SDS011;4691;47.612;7.610;2023-06-24T04:52:42;20.33;;;12.45;;
9306;SDS011;4691;47.612;7.610;2023-06-24T04:55:08;25.05;;;13.05;;
9306;SDS011;4691;47.612;7.610;2023-06-24T04:57:33;26.70;;;12.43;;
9306;SDS011;4691;47.612;7.610;2023-06-24T05:00:02;19.98;;;12.07;;
9306;SDS011;4691;47.612;7.610;2023-06-24T05:02:32;21.98;;;11.98;;
9306;SDS011;4691;47.612;7.610;2023-06-24T05:04:58;19.70;;;12.63;;
9306;SDS011;4691;47.612;7.610;2023-06-24T05:07:27;23.10;;;12.85;;
9306;SDS011;4691;47.612;7.610;2023-06-24T05:09:52;21.13;;;12.57;;
9306;SDS011;4691;47.612;7.610;2023-06-24T05:12:18;25.67;;;12.15;;
9306;SDS011;4691;47.612;7.610;2023-06-24T05:14:43;19.35;;;12.30;;
9306;SDS011;4691;47.612;7.610;2023-06-24T05:17:09;24.27;;;13.75;;
9306;SDS011;4691;47.612;7.610;2023-06-24T05:19:34;24.02;;;13.75;;
9306;SDS011;4691;47.612;7.610;2023-06-24T05:21:59;19.48;;;12.50;;
9306;SDS011;4691;47.612;7.610;2023-06-24T05:24:30;23.98;;;13.18;;
9306;SDS011;4691;47.612;7.610;2023-06-24T05:27:03;24.10;;;13.63;;
9306;SDS011;4691;47.612;7.610;2023-06-24T05:29:29;21.85;;;13.00;;
9306;SDS011;4691;47.612;7.610;2023-06-24T05:31:54;22.70;;;13.32;;
9306;SDS011;4691;47.612;7.610;2023-06-24T05:34:23;24.80;;;13.90;;
9306;SDS011;4691;47.612;7.610;2023-06-24T05:36:49;22.90;;;14.05;;
9306;SDS011;4691;47.612;7.610;2023-06-24T05:39:17;24.25;;;13.30;;
9306;SDS011;4691;47.612;7.610;2023-06-24T05:41:43;29.63;;;14.38;;
9306;SDS011;4691;47.612;7.610;2023-06-24T05:44:09;23.27;;;13.90;;
9306;SDS011;4691;47.612;7.610;2023-06-24T05:46:37;24.10;;;13.25;;
9306;SDS011;4691;47.612;7.610;2023-06-24T05:49:02;23.13;;;13.18;;
9306;SDS011;4691;47.612;7.610;2023-06-24T05:51:30;21.15;;;12.60;;
9306;SDS011;4691;47.612;7.610;2023-06-24T05:53:56;21.35;;;13.18;;
9306;SDS011;4691;47.612;7.610;2023-06-24T05:56:21;21.55;;;13.65;;
9306;SDS011;4691;47.612;7.610;2023-06-24T05:58:49;23.45;;;13.38;;
9306;SDS011;4691;47.612;7.610;2023-06-24T06:01:23;20.20;;;12.40;;
9306;SDS011;4691;47.612;7.610;2023-06-24T06:03:49;21.27;;;13.68;;
9306;SDS011;4691;47.612;7.610;2023-06-24T06:06:14;20.02;;;12.52;;
9306;SDS011;4691;47.612;7.610;2023-06-24T06:08:39;19.02;;;12.45;;
9306;SDS011;4691;47.612;7.610;2023-06-24T06:11:05;20.55;;;12.45;;
9306;SDS011;4691;47.612;7.610;2023-06-24T06:13:30;24.40;;;12.63;;
9306;SDS011;4691;47.612;7.610;2023-06-24T06:15:56;21.55;;;12.95;;
9306;SDS011;4691;47.612;7.610;2023-06-24T06:18:25;20.30;;;12.43;;
9306;SDS011;4691;47.612;7.610;2023-06-24T06:20:50;18.98;;;12.02;;
9306;SDS011;4691;47.612;7.610;2023-06-24T06:23:18;18.80;;;11.95;;
9306;SDS011;4691;47.612;7.610;2023-06-24T06:25:43;19.52;;;11.52;;
9306;SDS011;4691;47.612;7.610;2023-06-24T06:28:09;20.75;;;12.65;;
9306;SDS011;4691;47.612;7.610;2023-06-24T06:30:37;20.15;;;12.40;;
9306;SDS011;4691;47.612;7.610;2023-06-24T06:33:07;25.05;;;12.65;;
9306;SDS011;4691;47.612;7.610;2023-06-24T06:35:36;33.55;;;12.60;;
9306;SDS011;4691;47.612;7.610;2023-06-24T06:38:01;21.02;;;10.98;;
9306;SDS011;4691;47.612;7.610;2023-06-24T06:40:26;20.67;;;12.68;;
9306;SDS011;4691;47.612;7.610;2023-06-24T06:42:53;24.63;;;12.77;;
9306;SDS011;4691;47.612;7.610;2023-06-24T06:45:19;20.70;;;12.13;;
9306;SDS011;4691;47.612;7.610;2023-06-24T06:47:44;21.00;;;12.10;;
9306;SDS011;4691;47.612;7.610;2023-06-24T06:50:12;18.55;;;11.48;;
9306;SDS011;4691;47.612;7.610;2023-06-24T06:52:38;20.38;;;12.20;;
9306;SDS011;4691;47.612;7.610;2023-06-24T06:55:04;15.25;;;10.55;;
9306;SDS011;4691;47.612;7.610;2023-06-24T06:57:29;19.33;;;11.70;;
9306;SDS011;4691;47.612;7.610;2023-06-24T06:59:56;16.00;;;10.52;;
9306;SDS011;4691;47.612;7.610;2023-06-24T07:02:21;18.15;;;10.98;;
9306;SDS011;4691;47.612;7.610;2023-06-24T07:04:58;16.13;;;10.40;;
9306;SDS011;4691;47.612;7.610;2023-06-24T07:07:24;14.43;;;9.93;;
9306;SDS011;4691;47.612;7.610;2023-06-24T07:09:52;17.00;;;11.10;;
9306;SDS011;4691;47.612;7.610;2023-06-24T07:12:22;17.65;;;10.82;;
9306;SDS011;4691;47.612;7.610;2023-06-24T07:14:55;21.13;;;11.27;;
9306;SDS011;4691;47.612;7.610;2023-06-24T07:17:29;17.70;;;11.65;;
9306;SDS011;4691;47.612;7.610;2023-06-24T07:19:55;20.85;;;11.15;;
9306;SDS011;4691;47.612;7.610;2023-06-24T07:22:23;29.60;;;12.50;;
9306;SDS011;4691;47.612;7.610;2023-06-24T07:24:48;19.95;;;12.52;;
9306;SDS011;4691;47.612;7.610;2023-06-24T07:27:13;20.40;;;12.35;;
9306;SDS011;4691;47.612;7.610;2023-06-24T07:29:39;18.13;;;11.70;;
9306;SDS011;4691;47.612;7.610;2023-06-24T07:32:07;21.05;;;11.32;;
9306;SDS011;4691;47.612;7.610;2023-06-24T07:34:47;18.63;;;12.13;;
9306;SDS011;4691;47.612;7.610;2023-06-24T07:37:12;18.10;;;11.93;;
9306;SDS011;4691;47.612;7.610;2023-06-24T07:39:44;22.60;;;12.32;;
9306;SDS011;4691;47.612;7.610;2023-06-24T07:42:09;19.23;;;11.82;;
9306;SDS011;4691;47.612;7.610;2023-06-24T07:44:34;25.13;;;13.50;;
9306;SDS011;4691;47.612;7.610;2023-06-24T07:47:03;23.33;;;13.90;;
9306;SDS011;4691;47.612;7.610;2023-06-24T07:49:28;22.33;;;13.88;;
9306;SDS011;4691;47.612;7.610;2023-06-24T07:51:59;21.98;;;14.05;;
9306;SDS011;4691;47.612;7.610;2023-06-24T07:54:25;30.55;;;15.88;;
9306;SDS011;4691;47.612;7.610;2023-06-24T07:56:50;22.88;;;15.80;;
9306;SDS011;4691;47.612;7.610;2023-06-24T07:59:15;21.05;;;14.38;;
9306;SDS011;4691;47.612;7.610;2023-06-24T08:01:40;20.08;;;13.25;;
9306;SDS011;4691;47.612;7.610;2023-06-24T08:04:06;20.98;;;13.02;;
9306;SDS011;4691;47.612;7.610;2023-06-24T08:06:31;20.98;;;11.88;;
9306;SDS011;4691;47.612;7.610;2023-06-24T08:08:57;18.67;;;12.68;;
9306;SDS011;4691;47.612;7.610;2023-06-24T08:11:22;19.98;;;12.25;;
9306;SDS011;4691;47.612;7.610;2023-06-24T08:13:47;21.45;;;13.43;;
9306;SDS011;4691;47.612;7.610;2023-06-24T08:16:15;17.13;;;12.20;;
9306;SDS011;4691;47.612;7.610;2023-06-24T08:18:42;18.50;;;12.68;;
9306;SDS011;4691;47.612;7.610;2023-06-24T08:21:07;20.40;;;12.82;;
9306;SDS011;4691;47.612;7.610;2023-06-24T08:23:32;19.10;;;12.45;;
9306;SDS011;4691;47.612;7.610;2023-06-24T08:25:57;17.70;;;11.75;;
9306;SDS011;4691;47.612;7.610;2023-06-24T08:28:23;17.02;;;12.23;;
9306;SDS011;4691;47.612;7.610;2023-06-24T08:30:48;18.73;;;11.95;;
9306;SDS011;4691;47.612;7.610;2023-06-24T08:33:13;20.10;;;12.05;;
9306;SDS011;4691;47.612;7.610;2023-06-24T08:35:38;18.48;;;12.00;;
9306;SDS011;4691;47.612;7.610;2023-06-24T08:38:04;21.90;;;12.27;;
9306;SDS011;4691;47.612;7.610;2023-06-24T08:40:29;16.55;;;11.13;;
9306;SDS011;4691;47.612;7.610;2023-06-24T08:42:54;22.23;;;11.85;;
9306;SDS011;4691;47.612;7.610;2023-06-24T08:45:20;17.45;;;11.85;;
9306;SDS011;4691;47.612;7.610;2023-06-24T08:47:45;16.92;;;12.38;;
9306;SDS011;4691;47.612;7.610;2023-06-24T08:50:15;21.83;;;11.48;;
9306;SDS011;4691;47.612;7.610;2023-06-24T08:52:42;21.65;;;12.77;;
9306;SDS011;4691;47.612;7.610;2023-06-24T08:55:10;19.42;;;11.80;;
9306;SDS011;4691;47.612;7.610;2023-06-24T08:57:39;22.38;;;12.80;;
9306;SDS011;4691;47.612;7.610;2023-06-24T09:00:05;19.52;;;11.48;;
9306;SDS011;4691;47.612;7.610;2023-06-24T09:02:35;15.95;;;11.57;;
9306;SDS011;4691;47.612;7.610;2023-06-24T09:05:03;28.23;;;12.73;;
9306;SDS011;4691;47.612;7.610;2023-06-24T09:07:31;19.23;;;12.20;;
9306;SDS011;4691;47.612;7.610;2023-06-24T09:09:57;17.20;;;12.13;;
9306;SDS011;4691;47.612;7.610;2023-06-24T09:12:24;18.35;;;11.35;;
9306;SDS011;4691;47.612;7.610;2023-06-24T09:14:50;20.75;;;11.25;;
9306;SDS011;4691;47.612;7.610;2023-06-24T09:17:16;16.45;;;11.45;;
9306;SDS011;4691;47.612;7.610;2023-06-24T09:19:42;19.85;;;12.32;;
9306;SDS011;4691;47.612;7.610;2023-06-24T09:22:08;19.45;;;12.30;;
9306;SDS011;4691;47.612;7.610;2023-06-24T09:24:44;40.55;;;14.27;;
9306;SDS011;4691;47.612;7.610;2023-06-24T09:27:13;18.23;;;10.82;;
9306;SDS011;4691;47.612;7.610;2023-06-24T09:29:41;18.40;;;11.25;;
9306;SDS011;4691;47.612;7.610;2023-06-24T09:32:07;17.42;;;11.65;;
9306;SDS011;4691;47.612;7.610;2023-06-24T09:34:33;16.77;;;11.15;;
9306;SDS011;4691;47.612;7.610;2023-06-24T09:36:59;18.00;;;11.48;;
9306;SDS011;4691;47.612;7.610;2023-06-24T09:39:25;16.60;;;11.57;;
9306;SDS011;4691;47.612;7.610;2023-06-24T09:41:58;17.55;;;11.43;;
9306;SDS011;4691;47.612;7.610;2023-06-24T09:44:25;21.27;;;12.50;;
9306;SDS011;4691;47.612;7.610;2023-06-24T09:46:51;15.98;;;11.18;;
9306;SDS011;4691;47.612;7.610;2023-06-24T09:49:17;15.30;;;10.82;;
9306;SDS011;4691;47.612;7.610;2023-06-24T09:51:45;16.88;;;10.93;;
9306;SDS011;4691;47.612;7.610;2023-06-24T09:56:39;15.55;;;9.60;;
9306;SDS011;4691;47.612;7.610;2023-06-24T09:59:09;25.63;;;13.15;;
9306;SDS011;4691;47.612;7.610;2023-06-24T10:01:38;18.95;;;12.52;;
9306;SDS011;4691;47.612;7.610;2023-06-24T10:04:04;24.38;;;14.73;;
9306;SDS011;4691;47.612;7.610;2023-06-24T10:06:31;16.05;;;10.27;;
9306;SDS011;4691;47.612;7.610;2023-06-24T10:09:02;16.75;;;10.32;;
9306;SDS011;4691;47.612;7.610;2023-06-24T10:11:28;19.25;;;11.63;;
9306;SDS011;4691;47.612;7.610;2023-06-24T10:13:53;19.13;;;11.32;;
9306;SDS011;4691;47.612;7.610;2023-06-24T10:16:19;16.70;;;11.23;;
9306;SDS011;4691;47.612;7.610;2023-06-24T10:18:45;17.90;;;10.50;;
9306;SDS011;4691;47.612;7.610;2023-06-24T10:21:11;16.83;;;11.32;;
9306;SDS011;4691;47.612;7.610;2023-06-24T10:34:24;14.30;;;10.43;;
9306;SDS011;4691;47.612;7.610;2023-06-24T10:37:03;21.35;;;11.07;;
9306;SDS011;4691;47.612;7.610;2023-06-24T10:47:40;12.93;;;9.90;;
9306;SDS011;4691;47.612;7.610;2023-06-24T10:50:07;16.85;;;10.23;;
9306;SDS011;4691;47.612;7.610;2023-06-24T10:52:41;12.82;;;10.13;;
9306;SDS011;4691;47.612;7.610;2023-06-24T10:55:08;13.95;;;9.88;;
9306;SDS011;4691;47.612;7.610;2023-06-24T10:57:34;14.23;;;10.50;;
9306;SDS011;4691;47.612;7.610;2023-06-24T11:00:00;14.43;;;9.68;;
9306;SDS011;4691;47.612;7.610;2023-06-24T11:02:26;15.55;;;10.00;;
9306;SDS011;4691;47.612;7.610;2023-06-24T11:04:53;14.77;;;9.43;;
9306;SDS011;4691;47.612;7.610;2023-06-24T11:07:23;16.17;;;10.00;;
9306;SDS011;4691;47.612;7.610;2023-06-24T11:09:54;17.65;;;9.95;;
9306;SDS011;4691;47.612;7.610;2023-06-24T11:12:32;13.30;;;9.70;;
9306;SDS011;4691;47.612;7.610;2023-06-24T11:15:00;11.95;;;9.02;;
9306;SDS011;4691;47.612;7.610;2023-06-24T11:17:27;11.32;;;9.68;;
9306;SDS011;4691;47.612;7.610;2023-06-24T11:19:53;13.07;;;9.95;;
9306;SDS011;4691;47.612;7.610;2023-06-24T11:22:21;13.90;;;9.40;;
9306;SDS011;4691;47.612;7.610;2023-06-24T11:24:46;12.00;;;9.70;;
9306;SDS011;4691;47.612;7.610;2023-06-24T11:27:12;11.88;;;9.32;;
9306;SDS011;4691;47.612;7.610;2023-06-24T11:29:37;16.02;;;9.27;;
9306;SDS011;4691;47.612;7.610;2023-06-24T11:32:03;12.52;;;9.43;;
9306;SDS011;4691;47.612;7.610;2023-06-24T11:34:32;11.93;;;8.90;;
9306;SDS011;4691;47.612;7.610;2023-06-24T11:36:57;12.57;;;8.85;;
9306;SDS011;4691;47.612;7.610;2023-06-24T11:39:26;11.77;;;9.20;;
9306;SDS011;4691;47.612;7.610;2023-06-24T11:41:53;14.43;;;10.65;;
9306;SDS011;4691;47.612;7.610;2023-06-24T11:44:23;14.82;;;10.15;;
9306;SDS011;4691;47.612;7.610;2023-06-24T11:46:49;13.57;;;9.40;;
9306;SDS011;4691;47.612;7.610;2023-06-24T11:49:14;14.20;;;9.48;;
9306;SDS011;4691;47.612;7.610;2023-06-24T11:51:47;14.30;;;9.20;;
9306;SDS011;4691;47.612;7.610;2023-06-24T11:54:14;15.85;;;11.35;;
9306;SDS011;4691;47.612;7.610;2023-06-24T11:56:41;10.73;;;9.18;;
9306;SDS011;4691;47.612;7.610;2023-06-24T11:59:18;14.50;;;9.80;;
9306;SDS011;4691;47.612;7.610;2023-06-24T12:01:58;14.35;;;10.45;;
9306;SDS011;4691;47.612;7.610;2023-06-24T12:04:28;14.48;;;8.85;;
9306;SDS011;4691;47.612;7.610;2023-06-24T12:06:55;14.55;;;9.85;;
9306;SDS011;4691;47.612;7.610;2023-06-24T12:09:20;12.02;;;9.48;;
9306;SDS011;4691;47.612;7.610;2023-06-24T12:11:45;15.90;;;10.18;;
9306;SDS011;4691;47.612;7.610;2023-06-24T12:14:11;13.65;;;9.30;;
9306;SDS011;4691;47.612;7.610;2023-06-24T12:16:38;11.90;;;8.70;;
9306;SDS011;4691;47.612;7.610;2023-06-24T12:21:30;10.55;;;8.63;;
9306;SDS011;4691;47.612;7.610;2023-06-24T12:23:56;11.35;;;9.00;;
9306;SDS011;4691;47.612;7.610;2023-06-24T12:26:21;12.80;;;9.10;;
9306;SDS011;4691;47.612;7.610;2023-06-24T12:28:47;13.20;;;8.85;;
9306;SDS011;4691;47.612;7.610;2023-06-24T12:31:12;12.60;;;8.73;;
9306;SDS011;4691;47.612;7.610;2023-06-24T12:33:37;12.57;;;9.10;;
9306;SDS011;4691;47.612;7.610;2023-06-24T12:36:03;9.73;;;8.32;;
9306;SDS011;4691;47.612;7.610;2023-06-24T12:38:28;11.43;;;8.95;;
9306;SDS011;4691;47.612;7.610;2023-06-24T12:40:54;19.75;;;9.02;;
9306;SDS011;4691;47.612;7.610;2023-06-24T12:43:19;10.97;;;8.47;;
9306;SDS011;4691;47.612;7.610;2023-06-24T12:45:44;12.77;;;9.03;;
9306;SDS011;4691;47.612;7.610;2023-06-24T12:48:10;9.93;;;8.23;;
9306;SDS011;4691;47.612;7.610;2023-06-24T12:50:36;10.35;;;9.25;;
9306;SDS011;4691;47.612;7.610;2023-06-24T12:53:01;10.38;;;8.32;;
9306;SDS011;4691;47.612;7.610;2023-06-24T12:55:28;12.75;;;9.18;;
9306;SDS011;4691;47.612;7.610;2023-06-24T12:57:53;11.43;;;9.07;;
9306;SDS011;4691;47.612;7.610;2023-06-24T13:00:19;12.60;;;8.60;;
9306;SDS011;4691;47.612;7.610;2023-06-24T13:02:46;12.82;;;8.52;;
9306;SDS011;4691;47.612;7.610;2023-06-24T13:05:17;11.85;;;8.65;;
9306;SDS011;4691;47.612;7.610;2023-06-24T13:07:45;10.95;;;8.52;;
9306;SDS011;4691;47.612;7.610;2023-06-24T13:10:19;9.48;;;8.10;;
9306;SDS011;4691;47.612;7.610;2023-06-24T13:15:22;10.23;;;8.15;;
9306;SDS011;4691;47.612;7.610;2023-06-24T13:17:48;12.25;;;8.27;;
9306;SDS011;4691;47.612;7.610;2023-06-24T13:20:20;10.68;;;8.55;;
9306;SDS011;4691;47.612;7.610;2023-06-24T13:22:54;9.73;;;8.20;;
9306;SDS011;4691;47.612;7.610;2023-06-24T13:25:22;11.82;;;8.35;;
9306;SDS011;4691;47.612;7.610;2023-06-24T13:30:19;10.85;;;8.20;;
9306;SDS011;4691;47.612;7.610;2023-06-24T13:32:46;14.13;;;8.40;;
9306;SDS011;4691;47.612;7.610;2023-06-24T13:35:14;8.63;;;7.72;;
9306;SDS011;4691;47.612;7.610;2023-06-24T13:37:40;10.48;;;8.30;;
9306;SDS011;4691;47.612;7.610;2023-06-24T13:40:14;10.82;;;8.82;;
9306;SDS011;4691;47.612;7.610;2023-06-24T13:42:43;11.77;;;8.63;;
9306;SDS011;4691;47.612;7.610;2023-06-24T13:45:11;12.15;;;7.90;;
9306;SDS011;4691;47.612;7.610;2023-06-24T13:47:44;10.07;;;7.80;;
9306;SDS011;4691;47.612;7.610;2023-06-24T13:50:23;13.57;;;8.20;;
9306;SDS011;4691;47.612;7.610;2023-06-24T13:52:56;10.82;;;7.75;;
9306;SDS011;4691;47.612;7.610;2023-06-24T13:55:21;10.23;;;7.80;;
9306;SDS011;4691;47.612;7.610;2023-06-24T13:57:47;10.95;;;8.18;;
9306;SDS011;4691;47.612;7.610;2023-06-24T14:00:15;10.38;;;7.53;;
9306;SDS011;4691;47.612;7.610;2023-06-24T14:02:41;9.63;;;7.75;;
9306;SDS011;4691;47.612;7.610;2023-06-24T14:05:09;10.55;;;7.63;;
9306;SDS011;4691;47.612;7.610;2023-06-24T14:07:37;11.55;;;7.00;;
9306;SDS011;4691;47.612;7.610;2023-06-24T14:10:05;9.20;;;7.50;;
9306;SDS011;4691;47.612;7.610;2023-06-24T14:12:31;10.27;;;7.25;;
9306;SDS011;4691;47.612;7.610;2023-06-24T14:14:56;15.68;;;7.80;;
9306;SDS011;4691;47.612;7.610;2023-06-24T14:17:22;10.90;;;7.68;;
9306;SDS011;4691;47.612;7.610;2023-06-24T14:19:48;10.98;;;7.63;;
9306;SDS011;4691;47.612;7.610;2023-06-24T14:22:16;9.38;;;7.20;;
9306;SDS011;4691;47.612;7.610;2023-06-24T14:24:42;11.07;;;7.68;;
9306;SDS011;4691;47.612;7.610;2023-06-24T14:27:08;9.63;;;8.02;;
9306;SDS011;4691;47.612;7.610;2023-06-24T14:29:33;10.27;;;7.90;;
9306;SDS011;4691;47.612;7.610;2023-06-24T14:31:58;11.20;;;8.00;;
9306;SDS011;4691;47.612;7.610;2023-06-24T14:34:23;8.60;;;6.85;;
9306;SDS011;4691;47.612;7.610;2023-06-24T14:36:49;8.48;;;7.13;;
9306;SDS011;4691;47.612;7.610;2023-06-24T14:39:15;11.05;;;7.45;;
9306;SDS011;4691;47.612;7.610;2023-06-24T14:41:42;9.82;;;7.00;;
9306;SDS011;4691;47.612;7.610;2023-06-24T14:44:07;9.77;;;7.50;;
9306;SDS011;4691;47.612;7.610;2023-06-24T14:46:33;10.85;;;7.00;;
9306;SDS011;4691;47.612;7.610;2023-06-24T14:48:58;10.30;;;7.18;;
9306;SDS011;4691;47.612;7.610;2023-06-24T14:51:24;9.80;;;6.90;;
9306;SDS011;4691;47.612;7.610;2023-06-24T14:53:49;10.02;;;7.40;;
9306;SDS011;4691;47.612;7.610;2023-06-24T14:56:15;10.02;;;6.82;;
9306;SDS011;4691;47.612;7.610;2023-06-24T14:58:43;9.45;;;7.13;;
9306;SDS011;4691;47.612;7.610;2023-06-24T15:01:11;10.02;;;6.85;;
9306;SDS011;4691;47.612;7.610;2023-06-24T15:03:36;10.27;;;7.00;;
9306;SDS011;4691;47.612;7.610;2023-06-24T15:06:04;11.40;;;7.43;;
9306;SDS011;4691;47.612;7.610;2023-06-24T15:08:29;11.18;;;7.40;;
9306;SDS011;4691;47.612;7.610;2023-06-24T15:10:55;11.57;;;7.32;;
9306;SDS011;4691;47.612;7.610;2023-06-24T15:13:20;9.23;;;6.78;;
9306;SDS011;4691;47.612;7.610;2023-06-24T15:15:46;8.45;;;7.00;;
9306;SDS011;4691;47.612;7.610;2023-06-24T15:18:12;9.63;;;7.05;;
9306;SDS011;4691;47.612;7.610;2023-06-24T15:20:39;11.70;;;7.07;;
9306;SDS011;4691;47.612;7.610;2023-06-24T15:23:05;9.50;;;7.22;;
9306;SDS011;4691;47.612;7.610;2023-06-24T15:25:30;9.07;;;7.07;;
9306;SDS011;4691;47.612;7.610;2023-06-24T15:27:56;10.55;;;7.22;;
9306;SDS011;4691;47.612;7.610;2023-06-24T15:30:22;10.48;;;6.88;;
9306;SDS011;4691;47.612;7.610;2023-06-24T15:32:49;9.57;;;6.75;;
9306;SDS011;4691;47.612;7.610;2023-06-24T15:35:15;10.23;;;6.53;;
9306;SDS011;4691;47.612;7.610;2023-06-24T15:37:42;7.47;;;6.32;;
9306;SDS011;4691;47.612;7.610;2023-06-24T15:40:08;11.82;;;7.15;;
9306;SDS011;4691;47.612;7.610;2023-06-24T15:42:33;9.07;;;6.82;;
9306;SDS011;4691;47.612;7.610;2023-06-24T15:45:02;7.95;;;6.60;;
9306;SDS011;4691;47.612;7.610;2023-06-24T15:47:28;7.68;;;6.32;;